createdAt,value
2022-12-07T00:02:45.351Z,19.77
2022-12-07T00:07:01.516Z,23.23
2022-12-07T00:11:23.359Z,22.37
2022-12-07T00:15:39.467Z,35.08
2022-12-07T00:19:55.565Z,19.55
2022-12-07T00:24:14.986Z,14.63
2022-12-07T00:28:31.167Z,15.68
2022-12-07T00:32:47.339Z,14.48
2022-12-07T00:37:03.547Z,13.15
2022-12-07T00:41:22.732Z,12.63
2022-12-07T00:45:38.961Z,13.30
2022-12-07T00:49:55.197Z,14.35
2022-12-07T00:54:11.438Z,14.80
2022-12-07T00:58:27.669Z,13.77
2022-12-07T01:02:43.859Z,13.45
2022-12-07T01:07:00.097Z,15.45
2022-12-07T01:11:18.961Z,14.43
2022-12-07T01:15:35.074Z,16.73
2022-12-07T01:19:51.173Z,14.55
2022-12-07T01:24:10.529Z,15.38
2022-12-07T01:28:26.873Z,16.27
2022-12-07T01:32:43.105Z,16.20
2022-12-07T01:36:59.332Z,16.85
2022-12-07T01:41:15.896Z,12.15
2022-12-07T01:45:42.489Z,15.05
2022-12-07T01:49:58.968Z,13.77
2022-12-07T01:54:15.772Z,14.48
2022-12-07T01:58:32.061Z,18.05
2022-12-07T02:02:56.650Z,14.23
2022-12-07T02:07:13.152Z,14.50
2022-12-07T02:11:29.377Z,13.48
2022-12-07T02:16:00.699Z,11.82
2022-12-07T02:20:29.739Z,13.18
2022-12-07T02:25:06.992Z,14.00
2022-12-07T02:29:55.616Z,14.95
2022-12-07T02:34:16.748Z,14.63
2022-12-07T02:38:43.375Z,17.15
2022-12-07T02:43:08.017Z,14.15
2022-12-07T02:47:26.128Z,16.83
2022-12-07T02:51:44.697Z,14.93
2022-12-07T02:56:21.594Z,17.70
2022-12-07T03:00:47.830Z,19.20
2022-12-07T03:05:14.095Z,16.10
2022-12-07T03:09:56.427Z,13.30
2022-12-07T03:14:28.416Z,14.77
2022-12-07T03:18:50.257Z,15.63
2022-12-07T03:23:10.579Z,15.23
2022-12-07T03:27:49.920Z,15.93
2022-12-07T03:32:30.408Z,15.88
2022-12-07T03:37:11.377Z,17.58
2022-12-07T03:41:30.877Z,15.43
2022-12-07T03:46:02.153Z,15.85
2022-12-07T03:50:32.211Z,14.15
2022-12-07T03:55:06.428Z,13.98
2022-12-07T03:59:23.242Z,15.32
2022-12-07T04:03:39.431Z,15.48
2022-12-07T04:07:55.657Z,14.60
2022-12-07T04:12:11.789Z,16.42
2022-12-07T04:16:28.079Z,19.42
2022-12-07T04:20:44.314Z,14.65
2022-12-07T04:25:00.391Z,14.87
2022-12-07T04:29:17.040Z,15.02
2022-12-07T04:33:33.184Z,14.57
2022-12-07T04:37:49.323Z,13.62
2022-12-07T04:42:05.650Z,12.25
2022-12-07T04:46:22.069Z,13.43
2022-12-07T04:50:44.521Z,13.55
2022-12-07T04:55:02.332Z,12.93
2022-12-07T04:59:18.850Z,13.30
2022-12-07T05:03:35.072Z,14.60
2022-12-07T05:07:51.461Z,13.88
2022-12-07T05:12:07.670Z,15.18
2022-12-07T05:16:23.992Z,13.98
2022-12-07T05:20:42.805Z,14.05
2022-12-07T05:24:59.115Z,13.20
2022-12-07T05:29:16.886Z,14.07
2022-12-07T05:33:33.078Z,14.35
2022-12-07T05:37:49.354Z,13.27
2022-12-07T05:42:15.213Z,16.20
2022-12-07T05:46:31.694Z,13.45
2022-12-07T05:50:50.542Z,16.75
2022-12-07T05:55:08.239Z,15.23
2022-12-07T05:59:24.665Z,16.45
2022-12-07T06:03:40.897Z,18.37
2022-12-07T06:08:00.257Z,16.98
2022-12-07T06:12:35.494Z,17.10
2022-12-07T06:16:51.800Z,16.80
2022-12-07T06:21:07.999Z,17.55
2022-12-07T06:25:24.213Z,20.45
2022-12-07T06:29:40.449Z,19.30
2022-12-07T06:34:04.731Z,22.10
2022-12-07T06:38:23.655Z,17.75
2022-12-07T06:42:39.867Z,13.73
2022-12-07T06:47:18.968Z,18.70
2022-12-07T06:51:33.428Z,19.35
2022-12-07T06:55:49.648Z,17.80
2022-12-07T07:00:06.833Z,17.10
2022-12-07T07:04:23.157Z,22.35
2022-12-07T07:08:39.933Z,18.05
2022-12-07T07:12:59.068Z,17.20
2022-12-07T07:17:15.354Z,15.98
2022-12-07T07:21:31.563Z,18.45
2022-12-07T07:25:47.939Z,20.15
2022-12-07T07:30:04.955Z,18.87
2022-12-07T07:34:21.388Z,16.87
2022-12-07T07:38:37.583Z,19.10
2022-12-07T07:42:54.998Z,16.92
2022-12-07T07:47:11.304Z,19.67
2022-12-07T07:51:29.576Z,17.67
2022-12-07T07:55:57.672Z,15.35
2022-12-07T08:00:15.511Z,16.90
2022-12-07T08:04:33.818Z,16.60
2022-12-07T08:08:49.985Z,20.45
2022-12-07T08:13:11.952Z,17.55
2022-12-07T08:17:30.314Z,18.27
2022-12-07T08:21:46.503Z,16.77
2022-12-07T08:26:07.349Z,18.92
2022-12-07T08:30:23.827Z,19.15
2022-12-07T08:34:40.055Z,21.00
2022-12-07T08:39:29.930Z,18.87
2022-12-07T08:43:32.836Z,16.70
2022-12-07T08:48:27.537Z,17.12
2022-12-07T08:52:46.061Z,12.35
2022-12-07T08:57:02.269Z,12.48
2022-12-07T09:01:18.460Z,13.57
2022-12-07T09:05:35.375Z,12.18
2022-12-07T09:09:51.510Z,15.45
2022-12-07T09:14:07.645Z,14.18
2022-12-07T09:18:25.832Z,12.98
2022-12-07T09:22:42.127Z,12.77
2022-12-07T09:26:59.192Z,14.77
2022-12-07T09:31:25.911Z,13.05
2022-12-07T09:35:49.575Z,10.93
2022-12-07T09:40:07.046Z,12.15
2022-12-07T09:44:26.769Z,15.35
2022-12-07T09:48:44.147Z,14.80
2022-12-07T09:53:26.095Z,14.52
2022-12-07T09:57:45.084Z,14.95
2022-12-07T10:02:39.205Z,14.75
2022-12-07T10:06:55.301Z,11.07
2022-12-07T10:11:12.338Z,13.68
2022-12-07T10:15:46.892Z,10.73
2022-12-07T10:20:25.522Z,12.02
2022-12-07T10:24:44.010Z,13.27
2022-12-07T10:29:23.901Z,15.70
2022-12-07T10:34:03.715Z,12.63
2022-12-07T10:38:23.797Z,12.20
2022-12-07T10:42:40.059Z,12.55
2022-12-07T10:46:59.477Z,15.80
2022-12-07T10:51:24.795Z,12.73
2022-12-07T10:56:18.854Z,11.48
2022-12-07T11:00:58.286Z,11.70
2022-12-07T11:05:34.358Z,12.35
2022-12-07T11:10:11.713Z,12.23
2022-12-07T11:14:46.935Z,13.60
2022-12-07T11:19:11.220Z,13.27
2022-12-07T11:23:40.103Z,15.32
2022-12-07T11:28:16.529Z,13.65
2022-12-07T11:32:54.175Z,13.62
2022-12-07T11:37:18.188Z,14.35
2022-12-07T11:41:39.950Z,14.35
2022-12-07T11:46:02.894Z,13.20
2022-12-07T11:50:40.594Z,12.70
2022-12-07T11:55:00.742Z,12.93
2022-12-07T11:59:27.224Z,14.00
2022-12-07T12:03:52.525Z,11.20
2022-12-07T12:19:23.008Z,9.43
2022-12-07T12:23:55.635Z,15.40
2022-12-07T12:28:50.508Z,11.90
2022-12-07T12:33:23.820Z,11.12
2022-12-07T12:37:44.896Z,11.60
2022-12-07T12:42:01.600Z,11.73
2022-12-07T12:46:34.752Z,10.32
2022-12-07T12:51:10.746Z,9.82
2022-12-07T12:55:47.996Z,10.05
2022-12-07T13:00:22.385Z,12.57
2022-12-07T13:04:55.868Z,9.93
2022-12-07T13:09:24.642Z,10.50
2022-12-07T13:13:40.712Z,10.40
2022-12-07T13:18:00.013Z,14.65
2022-12-07T13:22:40.273Z,15.52
2022-12-07T13:26:58.761Z,11.77
2022-12-07T13:31:40.779Z,12.48
2022-12-07T13:35:59.863Z,12.52
2022-12-07T13:40:21.609Z,12.57
2022-12-07T13:44:45.035Z,13.60
2022-12-07T13:53:23.760Z,11.88
2022-12-07T13:57:42.195Z,13.93
2022-12-07T14:01:58.527Z,14.95
2022-12-07T14:06:24.242Z,15.25
2022-12-07T14:10:55.827Z,15.55
2022-12-07T14:15:26.763Z,15.70
2022-12-07T14:19:48.586Z,13.68
2022-12-07T14:24:12.528Z,13.57
2022-12-07T14:28:31.030Z,14.87
2022-12-07T14:32:49.858Z,12.77
2022-12-07T14:37:09.253Z,14.45
2022-12-07T14:41:43.761Z,12.82
2022-12-07T14:46:00.139Z,12.07
2022-12-07T14:50:20.087Z,16.60
2022-12-07T14:54:36.267Z,16.67
2022-12-07T14:58:52.574Z,15.90
2022-12-07T15:03:08.825Z,13.30
2022-12-07T15:07:25.086Z,13.60
2022-12-07T15:11:44.731Z,17.70
2022-12-07T15:16:01.396Z,14.75
2022-12-07T15:20:18.199Z,15.00
2022-12-07T15:24:34.887Z,14.87
2022-12-07T15:28:51.074Z,12.98
2022-12-07T15:33:07.584Z,14.95
2022-12-07T15:37:23.741Z,13.88
2022-12-07T15:41:39.945Z,17.08
2022-12-07T15:45:56.382Z,14.57
2022-12-07T15:50:19.444Z,13.88
2022-12-07T15:54:35.629Z,13.80
2022-12-07T15:58:51.823Z,13.85
2022-12-07T16:03:12.085Z,13.70
2022-12-07T16:07:32.447Z,17.85
2022-12-07T16:11:50.598Z,18.80
2022-12-07T16:16:14.291Z,20.62
2022-12-07T16:20:30.487Z,19.83
2022-12-07T16:24:48.663Z,19.70
2022-12-07T16:29:06.924Z,21.40
2022-12-07T16:33:23.065Z,18.15
2022-12-07T16:37:41.606Z,16.10
2022-12-07T16:41:57.681Z,18.42
2022-12-07T16:46:16.441Z,16.73
2022-12-07T16:50:32.807Z,16.73
2022-12-07T16:54:51.886Z,15.25
2022-12-07T16:59:08.687Z,18.23
2022-12-07T17:03:24.843Z,15.63
2022-12-07T17:07:41.111Z,16.17
2022-12-07T17:11:57.392Z,18.73
2022-12-07T17:16:13.712Z,14.68
2022-12-07T17:20:29.923Z,13.13
2022-12-07T17:24:46.010Z,14.00
2022-12-07T17:29:02.339Z,13.82
2022-12-07T17:33:18.510Z,16.80
2022-12-07T17:37:34.866Z,14.60
2022-12-07T17:42:09.448Z,15.38
2022-12-07T17:46:26.098Z,17.73
2022-12-07T17:51:00.547Z,22.67
2022-12-07T17:55:17.499Z,20.12
2022-12-07T17:59:33.770Z,16.27
2022-12-07T18:03:49.917Z,47.05
2022-12-07T18:08:06.834Z,24.20
2022-12-07T18:12:23.080Z,18.42
2022-12-07T18:16:39.282Z,19.02
2022-12-07T18:20:55.487Z,15.88
2022-12-07T18:25:11.591Z,14.50
2022-12-07T18:29:28.261Z,16.80
2022-12-07T18:33:45.580Z,22.00
2022-12-07T18:38:01.847Z,15.95
2022-12-07T18:42:17.953Z,16.25
2022-12-07T18:46:35.627Z,15.60
2022-12-07T18:51:02.862Z,15.80
2022-12-07T18:55:18.941Z,16.02
2022-12-07T18:59:47.056Z,17.77
2022-12-07T19:04:03.651Z,18.60
2022-12-07T19:08:20.005Z,17.55
2022-12-07T19:12:36.559Z,20.62
2022-12-07T19:16:56.109Z,16.73
2022-12-07T19:21:12.303Z,16.67
2022-12-07T19:25:28.472Z,15.00
2022-12-07T19:29:45.280Z,19.65
2022-12-07T19:34:01.369Z,16.48
2022-12-07T19:38:17.459Z,16.08
2022-12-07T19:42:35.870Z,18.17
2022-12-07T19:46:57.327Z,15.27
2022-12-07T19:51:17.288Z,16.73
2022-12-07T19:55:33.473Z,14.07
2022-12-07T19:59:52.017Z,15.35
2022-12-07T20:04:13.930Z,14.68
2022-12-07T20:08:30.654Z,16.37
2022-12-07T20:13:06.066Z,16.98
2022-12-07T20:17:22.454Z,18.52
2022-12-07T20:21:39.300Z,16.25
2022-12-07T20:25:56.192Z,17.33
2022-12-07T20:30:12.616Z,15.48
2022-12-07T20:34:28.914Z,17.73
2022-12-07T20:38:45.928Z,15.65
2022-12-07T20:43:02.139Z,18.73
2022-12-07T20:47:19.011Z,20.00
2022-12-07T20:51:35.404Z,22.95
2022-12-07T20:55:51.555Z,19.50
2022-12-07T21:00:08.639Z,18.27
2022-12-07T21:04:24.807Z,17.77
2022-12-07T21:08:46.490Z,21.58
2022-12-07T21:13:02.667Z,21.58
2022-12-07T21:17:18.817Z,20.80
2022-12-07T21:21:35.205Z,22.98
2022-12-07T21:25:51.435Z,21.27
2022-12-07T21:30:08.110Z,22.80
2022-12-07T21:34:24.359Z,30.65
2022-12-07T21:38:40.535Z,24.55
2022-12-07T21:42:56.680Z,32.38
2022-12-07T21:47:12.766Z,25.20
2022-12-07T21:51:30.459Z,19.33
2022-12-07T21:55:46.823Z,22.83
2022-12-07T22:00:03.039Z,21.40
2022-12-07T22:04:24.637Z,20.92
2022-12-07T22:08:41.830Z,31.27
2022-12-07T22:12:58.960Z,27.50
2022-12-07T22:17:15.054Z,22.30
2022-12-07T22:21:31.745Z,22.87
2022-12-07T22:25:47.851Z,23.02
2022-12-07T22:30:06.163Z,21.10
2022-12-07T22:34:22.764Z,18.27
2022-12-07T22:38:40.360Z,18.12
2022-12-07T22:42:58.153Z,20.30
2022-12-07T22:47:15.025Z,17.35
2022-12-07T22:51:39.507Z,21.95
2022-12-07T22:55:55.677Z,24.05
2022-12-07T23:00:12.493Z,20.37
2022-12-07T23:04:28.936Z,19.77
2022-12-07T23:08:45.472Z,20.85
2022-12-07T23:13:20.273Z,22.13
2022-12-07T23:17:37.042Z,19.55
2022-12-07T23:21:53.452Z,22.60
2022-12-07T23:26:11.781Z,19.95
2022-12-07T23:30:27.917Z,15.75
2022-12-07T23:34:44.749Z,17.60
2022-12-07T23:39:00.990Z,20.25
2022-12-07T23:43:17.133Z,20.75
2022-12-07T23:47:33.299Z,20.48
2022-12-07T23:51:49.440Z,19.08
2022-12-07T23:56:05.955Z,18.40
